sensor_id;sensor_type;location;lat;lon;timestamp;P1;durP1;ratioP1;P2;durP2;ratioP2
68923;SDS011;55961;52.156;20.942;2022-07-23T00:02:22;19.27;;;13.07;;
68923;SDS011;55961;52.156;20.942;2022-07-23T00:04:48;17.53;;;13.70;;
68923;SDS011;55961;52.156;20.942;2022-07-23T00:07:14;16.88;;;12.82;;
68923;SDS011;55961;52.156;20.942;2022-07-23T00:09:40;19.40;;;12.57;;
68923;SDS011;55961;52.156;20.942;2022-07-23T00:12:06;17.17;;;13.63;;
68923;SDS011;55961;52.156;20.942;2022-07-23T00:14:32;16.98;;;12.98;;
68923;SDS011;55961;52.156;20.942;2022-07-23T00:16:58;15.98;;;12.65;;
68923;SDS011;55961;52.156;20.942;2022-07-23T00:19:23;18.23;;;12.93;;
68923;SDS011;55961;52.156;20.942;2022-07-23T00:21:49;16.98;;;13.38;;
68923;SDS011;55961;52.156;20.942;2022-07-23T00:24:15;19.05;;;12.70;;
68923;SDS011;55961;52.156;20.942;2022-07-23T00:26:41;16.20;;;12.90;;
68923;SDS011;55961;52.156;20.942;2022-07-23T00:29:07;20.00;;;12.75;;
68923;SDS011;55961;52.156;20.942;2022-07-23T00:31:33;18.73;;;13.32;;
68923;SDS011;55961;52.156;20.942;2022-07-23T00:33:59;18.10;;;13.83;;
68923;SDS011;55961;52.156;20.942;2022-07-23T00:36:27;17.40;;;13.18;;
68923;SDS011;55961;52.156;20.942;2022-07-23T00:38:53;18.02;;;13.60;;
68923;SDS011;55961;52.156;20.942;2022-07-23T00:41:19;17.55;;;13.65;;
68923;SDS011;55961;52.156;20.942;2022-07-23T00:43:45;19.10;;;13.90;;
68923;SDS011;55961;52.156;20.942;2022-07-23T00:46:11;21.43;;;14.60;;
68923;SDS011;55961;52.156;20.942;2022-07-23T00:48:37;17.83;;;13.48;;
68923;SDS011;55961;52.156;20.942;2022-07-23T00:51:03;19.95;;;13.95;;
68923;SDS011;55961;52.156;20.942;2022-07-23T00:53:29;19.30;;;14.17;;
68923;SDS011;55961;52.156;20.942;2022-07-23T00:55:56;17.42;;;13.65;;
68923;SDS011;55961;52.156;20.942;2022-07-23T00:58:24;19.75;;;14.15;;
68923;SDS011;55961;52.156;20.942;2022-07-23T01:00:50;20.65;;;13.68;;
68923;SDS011;55961;52.156;20.942;2022-07-23T01:03:15;20.20;;;14.03;;
68923;SDS011;55961;52.156;20.942;2022-07-23T01:05:41;19.88;;;14.30;;
68923;SDS011;55961;52.156;20.942;2022-07-23T01:08:07;18.38;;;14.65;;
68923;SDS011;55961;52.156;20.942;2022-07-23T01:10:33;20.17;;;13.80;;
68923;SDS011;55961;52.156;20.942;2022-07-23T01:13:03;18.55;;;14.40;;
68923;SDS011;55961;52.156;20.942;2022-07-23T01:15:31;17.98;;;14.18;;
68923;SDS011;55961;52.156;20.942;2022-07-23T01:17:58;20.35;;;14.48;;
68923;SDS011;55961;52.156;20.942;2022-07-23T01:20:25;20.60;;;14.30;;
68923;SDS011;55961;52.156;20.942;2022-07-23T01:22:51;21.97;;;15.17;;
68923;SDS011;55961;52.156;20.942;2022-07-23T01:25:18;20.17;;;15.10;;
68923;SDS011;55961;52.156;20.942;2022-07-23T01:27:44;20.55;;;14.48;;
68923;SDS011;55961;52.156;20.942;2022-07-23T01:30:10;19.55;;;14.60;;
68923;SDS011;55961;52.156;20.942;2022-07-23T01:32:37;18.98;;;15.18;;
68923;SDS011;55961;52.156;20.942;2022-07-23T01:35:04;17.70;;;14.07;;
68923;SDS011;55961;52.156;20.942;2022-07-23T01:37:31;23.90;;;13.45;;
68923;SDS011;55961;52.156;20.942;2022-07-23T01:39:56;19.50;;;15.30;;
68923;SDS011;55961;52.156;20.942;2022-07-23T01:42:22;19.75;;;14.52;;
68923;SDS011;55961;52.156;20.942;2022-07-23T01:44:49;24.88;;;15.40;;
68923;SDS011;55961;52.156;20.942;2022-07-23T01:47:14;19.50;;;15.40;;
68923;SDS011;55961;52.156;20.942;2022-07-23T01:49:40;21.17;;;15.77;;
68923;SDS011;55961;52.156;20.942;2022-07-23T01:52:06;25.40;;;14.88;;
68923;SDS011;55961;52.156;20.942;2022-07-23T01:54:36;22.93;;;15.67;;
68923;SDS011;55961;52.156;20.942;2022-07-23T01:57:03;19.45;;;15.35;;
68923;SDS011;55961;52.156;20.942;2022-07-23T01:59:29;21.10;;;15.38;;
68923;SDS011;55961;52.156;20.942;2022-07-23T02:01:55;22.75;;;16.33;;
68923;SDS011;55961;52.156;20.942;2022-07-23T02:04:22;19.95;;;14.73;;
68923;SDS011;55961;52.156;20.942;2022-07-23T02:06:49;21.93;;;15.10;;
68923;SDS011;55961;52.156;20.942;2022-07-23T02:09:16;19.38;;;14.77;;
68923;SDS011;55961;52.156;20.942;2022-07-23T02:11:42;21.00;;;14.48;;
68923;SDS011;55961;52.156;20.942;2022-07-23T02:14:08;18.00;;;14.52;;
68923;SDS011;55961;52.156;20.942;2022-07-23T02:16:34;19.20;;;15.10;;
68923;SDS011;55961;52.156;20.942;2022-07-23T02:19:00;19.90;;;14.60;;
68923;SDS011;55961;52.156;20.942;2022-07-23T02:21:26;19.33;;;15.38;;
68923;SDS011;55961;52.156;20.942;2022-07-23T02:23:51;21.97;;;14.30;;
68923;SDS011;55961;52.156;20.942;2022-07-23T02:26:17;20.80;;;14.65;;
68923;SDS011;55961;52.156;20.942;2022-07-23T02:28:43;20.88;;;15.02;;
68923;SDS011;55961;52.156;20.942;2022-07-23T02:31:09;19.27;;;14.33;;
68923;SDS011;55961;52.156;20.942;2022-07-23T02:33:35;20.80;;;14.00;;
68923;SDS011;55961;52.156;20.942;2022-07-23T02:36:01;23.23;;;14.82;;
68923;SDS011;55961;52.156;20.942;2022-07-23T02:38:26;22.27;;;14.60;;
68923;SDS011;55961;52.156;20.942;2022-07-23T02:40:53;19.80;;;14.90;;
68923;SDS011;55961;52.156;20.942;2022-07-23T02:43:19;18.95;;;13.88;;
68923;SDS011;55961;52.156;20.942;2022-07-23T02:45:45;22.13;;;14.33;;
68923;SDS011;55961;52.156;20.942;2022-07-23T02:48:10;21.40;;;15.15;;
68923;SDS011;55961;52.156;20.942;2022-07-23T02:50:39;21.30;;;14.90;;
68923;SDS011;55961;52.156;20.942;2022-07-23T02:53:05;20.23;;;14.93;;
68923;SDS011;55961;52.156;20.942;2022-07-23T02:55:31;21.73;;;14.87;;
68923;SDS011;55961;52.156;20.942;2022-07-23T02:57:57;19.77;;;15.32;;
68923;SDS011;55961;52.156;20.942;2022-07-23T03:00:22;26.60;;;14.70;;
68923;SDS011;55961;52.156;20.942;2022-07-23T03:02:49;24.65;;;14.95;;
68923;SDS011;55961;52.156;20.942;2022-07-23T03:05:14;19.92;;;14.93;;
68923;SDS011;55961;52.156;20.942;2022-07-23T03:07:40;20.40;;;14.70;;
68923;SDS011;55961;52.156;20.942;2022-07-23T03:10:06;21.88;;;15.38;;
68923;SDS011;55961;52.156;20.942;2022-07-23T03:12:32;20.92;;;15.35;;
68923;SDS011;55961;52.156;20.942;2022-07-23T03:14:58;20.02;;;15.93;;
68923;SDS011;55961;52.156;20.942;2022-07-23T03:17:24;21.33;;;16.00;;
68923;SDS011;55961;52.156;20.942;2022-07-23T03:19:50;21.98;;;16.00;;
68923;SDS011;55961;52.156;20.942;2022-07-23T03:22:15;19.87;;;15.67;;
68923;SDS011;55961;52.156;20.942;2022-07-23T03:24:41;23.98;;;16.05;;
68923;SDS011;55961;52.156;20.942;2022-07-23T03:27:26;24.33;;;15.63;;
68923;SDS011;55961;52.156;20.942;2022-07-23T03:29:54;18.02;;;15.38;;
68923;SDS011;55961;52.156;20.942;2022-07-23T03:32:21;27.67;;;15.27;;
68923;SDS011;55961;52.156;20.942;2022-07-23T03:34:48;21.77;;;15.97;;
68923;SDS011;55961;52.156;20.942;2022-07-23T03:37:14;21.13;;;16.42;;
68923;SDS011;55961;52.156;20.942;2022-07-23T03:39:41;21.23;;;15.90;;
68923;SDS011;55961;52.156;20.942;2022-07-23T03:42:07;23.20;;;15.82;;
68923;SDS011;55961;52.156;20.942;2022-07-23T03:44:33;23.13;;;16.33;;
68923;SDS011;55961;52.156;20.942;2022-07-23T03:46:59;24.03;;;15.47;;
68923;SDS011;55961;52.156;20.942;2022-07-23T03:49:24;26.02;;;16.85;;
68923;SDS011;55961;52.156;20.942;2022-07-23T03:51:50;22.35;;;15.57;;
68923;SDS011;55961;52.156;20.942;2022-07-23T03:54:16;21.27;;;15.53;;
68923;SDS011;55961;52.156;20.942;2022-07-23T03:56:42;22.35;;;15.85;;
68923;SDS011;55961;52.156;20.942;2022-07-23T03:59:09;23.92;;;15.43;;
68923;SDS011;55961;52.156;20.942;2022-07-23T04:01:35;23.75;;;16.20;;
68923;SDS011;55961;52.156;20.942;2022-07-23T04:04:01;24.17;;;15.38;;
68923;SDS011;55961;52.156;20.942;2022-07-23T04:06:28;22.93;;;15.87;;
68923;SDS011;55961;52.156;20.942;2022-07-23T04:08:54;22.55;;;16.13;;
68923;SDS011;55961;52.156;20.942;2022-07-23T04:11:20;19.52;;;14.65;;
68923;SDS011;55961;52.156;20.942;2022-07-23T04:13:46;21.90;;;15.13;;
68923;SDS011;55961;52.156;20.942;2022-07-23T04:16:12;19.73;;;14.30;;
68923;SDS011;55961;52.156;20.942;2022-07-23T04:18:38;19.77;;;15.48;;
68923;SDS011;55961;52.156;20.942;2022-07-23T04:21:04;21.08;;;14.90;;
68923;SDS011;55961;52.156;20.942;2022-07-23T04:23:30;22.20;;;15.07;;
68923;SDS011;55961;52.156;20.942;2022-07-23T04:25:56;21.90;;;14.97;;
68923;SDS011;55961;52.156;20.942;2022-07-23T04:28:22;23.17;;;15.35;;
68923;SDS011;55961;52.156;20.942;2022-07-23T04:30:47;19.33;;;14.75;;
68923;SDS011;55961;52.156;20.942;2022-07-23T04:33:13;21.60;;;14.57;;
68923;SDS011;55961;52.156;20.942;2022-07-23T04:35:39;20.30;;;14.82;;
68923;SDS011;55961;52.156;20.942;2022-07-23T04:38:05;19.45;;;14.07;;
68923;SDS011;55961;52.156;20.942;2022-07-23T04:40:31;20.53;;;14.70;;
68923;SDS011;55961;52.156;20.942;2022-07-23T04:42:57;26.33;;;14.85;;
68923;SDS011;55961;52.156;20.942;2022-07-23T04:45:23;20.27;;;14.75;;
68923;SDS011;55961;52.156;20.942;2022-07-23T04:47:49;22.50;;;14.93;;
68923;SDS011;55961;52.156;20.942;2022-07-23T04:50:16;20.60;;;14.50;;
68923;SDS011;55961;52.156;20.942;2022-07-23T04:52:49;19.45;;;15.00;;
68923;SDS011;55961;52.156;20.942;2022-07-23T04:55:16;19.60;;;13.43;;
68923;SDS011;55961;52.156;20.942;2022-07-23T04:57:42;21.83;;;13.90;;
68923;SDS011;55961;52.156;20.942;2022-07-23T05:00:09;20.67;;;14.37;;
68923;SDS011;55961;52.156;20.942;2022-07-23T05:02:35;19.73;;;13.98;;
68923;SDS011;55961;52.156;20.942;2022-07-23T05:05:01;21.65;;;13.93;;
68923;SDS011;55961;52.156;20.942;2022-07-23T05:07:27;21.53;;;13.93;;
68923;SDS011;55961;52.156;20.942;2022-07-23T05:09:52;20.00;;;14.10;;
68923;SDS011;55961;52.156;20.942;2022-07-23T05:12:18;17.25;;;13.38;;
68923;SDS011;55961;52.156;20.942;2022-07-23T05:14:44;18.33;;;13.97;;
68923;SDS011;55961;52.156;20.942;2022-07-23T05:17:10;20.25;;;14.07;;
68923;SDS011;55961;52.156;20.942;2022-07-23T05:19:36;17.10;;;13.55;;
68923;SDS011;55961;52.156;20.942;2022-07-23T05:22:02;19.13;;;14.27;;
68923;SDS011;55961;52.156;20.942;2022-07-23T05:24:27;18.23;;;12.65;;
68923;SDS011;55961;52.156;20.942;2022-07-23T05:26:53;19.33;;;13.10;;
68923;SDS011;55961;52.156;20.942;2022-07-23T05:29:19;18.03;;;13.10;;
68923;SDS011;55961;52.156;20.942;2022-07-23T05:31:45;18.98;;;13.10;;
68923;SDS011;55961;52.156;20.942;2022-07-23T05:34:11;20.52;;;12.90;;
68923;SDS011;55961;52.156;20.942;2022-07-23T05:36:37;18.47;;;12.90;;
68923;SDS011;55961;52.156;20.942;2022-07-23T05:39:03;17.85;;;12.63;;
68923;SDS011;55961;52.156;20.942;2022-07-23T05:41:29;17.98;;;13.10;;
68923;SDS011;55961;52.156;20.942;2022-07-23T05:43:55;15.38;;;11.70;;
68923;SDS011;55961;52.156;20.942;2022-07-23T05:46:21;19.33;;;12.50;;
68923;SDS011;55961;52.156;20.942;2022-07-23T05:48:47;14.88;;;12.15;;
68923;SDS011;55961;52.156;20.942;2022-07-23T05:51:21;14.82;;;11.75;;
68923;SDS011;55961;52.156;20.942;2022-07-23T05:53:48;17.23;;;11.20;;
68923;SDS011;55961;52.156;20.942;2022-07-23T05:56:15;14.50;;;11.43;;
68923;SDS011;55961;52.156;20.942;2022-07-23T05:58:41;15.77;;;10.85;;
68923;SDS011;55961;52.156;20.942;2022-07-23T06:01:07;17.50;;;11.13;;
68923;SDS011;55961;52.156;20.942;2022-07-23T06:03:34;15.48;;;11.15;;
68923;SDS011;55961;52.156;20.942;2022-07-23T06:06:00;16.77;;;10.93;;
68923;SDS011;55961;52.156;20.942;2022-07-23T06:08:26;16.50;;;11.33;;
68923;SDS011;55961;52.156;20.942;2022-07-23T06:10:51;15.48;;;11.65;;
68923;SDS011;55961;52.156;20.942;2022-07-23T06:13:17;14.65;;;10.90;;
68923;SDS011;55961;52.156;20.942;2022-07-23T06:15:44;13.60;;;11.13;;
68923;SDS011;55961;52.156;20.942;2022-07-23T06:18:10;14.68;;;10.85;;
68923;SDS011;55961;52.156;20.942;2022-07-23T06:20:35;15.02;;;10.48;;
68923;SDS011;55961;52.156;20.942;2022-07-23T06:23:01;14.67;;;10.60;;
68923;SDS011;55961;52.156;20.942;2022-07-23T06:25:27;14.53;;;10.37;;
68923;SDS011;55961;52.156;20.942;2022-07-23T06:27:53;13.55;;;10.55;;
68923;SDS011;55961;52.156;20.942;2022-07-23T06:30:19;15.13;;;10.65;;
68923;SDS011;55961;52.156;20.942;2022-07-23T06:32:46;17.97;;;11.43;;
68923;SDS011;55961;52.156;20.942;2022-07-23T06:35:12;14.73;;;10.57;;
68923;SDS011;55961;52.156;20.942;2022-07-23T06:37:39;14.15;;;10.52;;
68923;SDS011;55961;52.156;20.942;2022-07-23T06:40:05;14.83;;;10.43;;
68923;SDS011;55961;52.156;20.942;2022-07-23T06:42:31;13.35;;;9.35;;
68923;SDS011;55961;52.156;20.942;2022-07-23T06:44:57;12.32;;;9.82;;
68923;SDS011;55961;52.156;20.942;2022-07-23T06:47:23;13.35;;;9.45;;
68923;SDS011;55961;52.156;20.942;2022-07-23T06:49:49;14.98;;;9.65;;
68923;SDS011;55961;52.156;20.942;2022-07-23T06:52:15;11.83;;;9.80;;
68923;SDS011;55961;52.156;20.942;2022-07-23T06:54:41;14.32;;;10.15;;
68923;SDS011;55961;52.156;20.942;2022-07-23T06:57:06;15.33;;;9.27;;
68923;SDS011;55961;52.156;20.942;2022-07-23T06:59:32;12.23;;;9.23;;
68923;SDS011;55961;52.156;20.942;2022-07-23T07:02:01;12.77;;;9.80;;
68923;SDS011;55961;52.156;20.942;2022-07-23T07:04:27;13.63;;;9.38;;
68923;SDS011;55961;52.156;20.942;2022-07-23T07:06:53;13.02;;;8.50;;
68923;SDS011;55961;52.156;20.942;2022-07-23T07:09:18;11.37;;;8.50;;
68923;SDS011;55961;52.156;20.942;2022-07-23T07:11:44;10.98;;;8.90;;
68923;SDS011;55961;52.156;20.942;2022-07-23T07:14:10;12.50;;;8.75;;
68923;SDS011;55961;52.156;20.942;2022-07-23T07:16:36;10.63;;;8.47;;
68923;SDS011;55961;52.156;20.942;2022-07-23T07:19:02;11.73;;;9.48;;
68923;SDS011;55961;52.156;20.942;2022-07-23T07:21:28;14.68;;;8.98;;
68923;SDS011;55961;52.156;20.942;2022-07-23T07:23:54;12.17;;;8.90;;
68923;SDS011;55961;52.156;20.942;2022-07-23T07:26:20;12.18;;;9.48;;
68923;SDS011;55961;52.156;20.942;2022-07-23T07:28:45;10.25;;;9.15;;
68923;SDS011;55961;52.156;20.942;2022-07-23T07:31:11;12.40;;;9.17;;
68923;SDS011;55961;52.156;20.942;2022-07-23T07:33:37;10.60;;;9.05;;
68923;SDS011;55961;52.156;20.942;2022-07-23T07:36:03;12.70;;;8.90;;
68923;SDS011;55961;52.156;20.942;2022-07-23T07:38:29;11.17;;;8.37;;
68923;SDS011;55961;52.156;20.942;2022-07-23T07:40:55;11.63;;;8.65;;
68923;SDS011;55961;52.156;20.942;2022-07-23T07:43:21;13.45;;;8.60;;
68923;SDS011;55961;52.156;20.942;2022-07-23T07:45:47;12.27;;;8.90;;
68923;SDS011;55961;52.156;20.942;2022-07-23T07:48:13;11.57;;;9.00;;
68923;SDS011;55961;52.156;20.942;2022-07-23T07:50:39;11.43;;;8.55;;
68923;SDS011;55961;52.156;20.942;2022-07-23T07:53:04;12.77;;;8.70;;
68923;SDS011;55961;52.156;20.942;2022-07-23T07:55:30;12.95;;;8.13;;
68923;SDS011;55961;52.156;20.942;2022-07-23T07:57:56;11.30;;;8.05;;
68923;SDS011;55961;52.156;20.942;2022-07-23T08:00:23;10.33;;;8.40;;
68923;SDS011;55961;52.156;20.942;2022-07-23T08:02:50;13.35;;;8.43;;
68923;SDS011;55961;52.156;20.942;2022-07-23T08:05:21;11.07;;;8.60;;
68923;SDS011;55961;52.156;20.942;2022-07-23T08:07:49;13.23;;;8.38;;
68923;SDS011;55961;52.156;20.942;2022-07-23T08:10:15;9.93;;;8.90;;
68923;SDS011;55961;52.156;20.942;2022-07-23T08:12:45;11.93;;;8.52;;
68923;SDS011;55961;52.156;20.942;2022-07-23T08:15:18;9.82;;;8.07;;
68923;SDS011;55961;52.156;20.942;2022-07-23T08:17:45;12.85;;;8.65;;
68923;SDS011;55961;52.156;20.942;2022-07-23T08:20:13;11.85;;;8.77;;
68923;SDS011;55961;52.156;20.942;2022-07-23T08:22:48;12.00;;;8.87;;
68923;SDS011;55961;52.156;20.942;2022-07-23T08:25:16;14.85;;;8.73;;
68923;SDS011;55961;52.156;20.942;2022-07-23T08:27:46;13.93;;;9.48;;
68923;SDS011;55961;52.156;20.942;2022-07-23T08:30:12;12.18;;;8.95;;
68923;SDS011;55961;52.156;20.942;2022-07-23T08:32:52;11.27;;;8.63;;
68923;SDS011;55961;52.156;20.942;2022-07-23T08:35:27;10.93;;;8.60;;
68923;SDS011;55961;52.156;20.942;2022-07-23T08:37:54;11.35;;;9.30;;
68923;SDS011;55961;52.156;20.942;2022-07-23T08:40:21;12.68;;;8.95;;
68923;SDS011;55961;52.156;20.942;2022-07-23T08:42:48;13.90;;;8.95;;
68923;SDS011;55961;52.156;20.942;2022-07-23T08:45:16;11.40;;;8.63;;
68923;SDS011;55961;52.156;20.942;2022-07-23T08:47:50;14.48;;;9.30;;
68923;SDS011;55961;52.156;20.942;2022-07-23T08:50:18;16.35;;;8.95;;
68923;SDS011;55961;52.156;20.942;2022-07-23T08:52:45;9.75;;;8.18;;
68923;SDS011;55961;52.156;20.942;2022-07-23T08:55:13;10.90;;;8.20;;
68923;SDS011;55961;52.156;20.942;2022-07-23T08:57:42;11.00;;;8.70;;
68923;SDS011;55961;52.156;20.942;2022-07-23T09:00:08;11.32;;;8.20;;
68923;SDS011;55961;52.156;20.942;2022-07-23T09:02:38;10.18;;;8.25;;
68923;SDS011;55961;52.156;20.942;2022-07-23T09:05:08;9.93;;;8.52;;
68923;SDS011;55961;52.156;20.942;2022-07-23T09:08:02;10.80;;;8.53;;
68923;SDS011;55961;52.156;20.942;2022-07-23T09:13:29;11.30;;;8.45;;
68923;SDS011;55961;52.156;20.942;2022-07-23T09:16:14;13.13;;;8.38;;
68923;SDS011;55961;52.156;20.942;2022-07-23T09:18:52;10.35;;;7.75;;
68923;SDS011;55961;52.156;20.942;2022-07-23T09:21:31;9.80;;;8.00;;
68923;SDS011;55961;52.156;20.942;2022-07-23T09:23:59;11.65;;;8.25;;
68923;SDS011;55961;52.156;20.942;2022-07-23T09:26:34;10.77;;;8.30;;
68923;SDS011;55961;52.156;20.942;2022-07-23T09:29:16;12.48;;;8.18;;
68923;SDS011;55961;52.156;20.942;2022-07-23T09:31:50;10.35;;;7.70;;
68923;SDS011;55961;52.156;20.942;2022-07-23T09:36:55;9.85;;;7.55;;
68923;SDS011;55961;52.156;20.942;2022-07-23T09:39:29;9.55;;;8.55;;
68923;SDS011;55961;52.156;20.942;2022-07-23T09:41:57;12.43;;;8.00;;
68923;SDS011;55961;52.156;20.942;2022-07-23T09:44:40;12.80;;;8.05;;
68923;SDS011;55961;52.156;20.942;2022-07-23T09:47:10;10.50;;;7.93;;
68923;SDS011;55961;52.156;20.942;2022-07-23T09:49:36;8.55;;;7.65;;
68923;SDS011;55961;52.156;20.942;2022-07-23T09:52:02;11.63;;;7.80;;
68923;SDS011;55961;52.156;20.942;2022-07-23T09:54:32;10.88;;;8.20;;
68923;SDS011;55961;52.156;20.942;2022-07-23T09:57:02;43.20;;;9.23;;
68923;SDS011;55961;52.156;20.942;2022-07-23T09:59:34;12.77;;;7.63;;
68923;SDS011;55961;52.156;20.942;2022-07-23T10:02:01;10.30;;;7.22;;
68923;SDS011;55961;52.156;20.942;2022-07-23T10:04:30;10.25;;;7.53;;
68923;SDS011;55961;52.156;20.942;2022-07-23T10:06:58;9.93;;;7.60;;
68923;SDS011;55961;52.156;20.942;2022-07-23T10:09:27;9.40;;;6.97;;
68923;SDS011;55961;52.156;20.942;2022-07-23T10:11:55;11.90;;;7.22;;
68923;SDS011;55961;52.156;20.942;2022-07-23T10:14:31;11.77;;;7.60;;
68923;SDS011;55961;52.156;20.942;2022-07-23T10:17:00;9.68;;;6.13;;
68923;SDS011;55961;52.156;20.942;2022-07-23T10:19:29;10.05;;;7.35;;
68923;SDS011;55961;52.156;20.942;2022-07-23T10:22:00;9.97;;;7.40;;
68923;SDS011;55961;52.156;20.942;2022-07-23T10:30:30;9.70;;;7.10;;
68923;SDS011;55961;52.156;20.942;2022-07-23T10:38:37;9.32;;;6.43;;
68923;SDS011;55961;52.156;20.942;2022-07-23T10:41:17;9.15;;;7.18;;
68923;SDS011;55961;52.156;20.942;2022-07-23T10:44:06;11.32;;;7.60;;
68923;SDS011;55961;52.156;20.942;2022-07-23T10:49:44;9.57;;;7.30;;
68923;SDS011;55961;52.156;20.942;2022-07-23T10:54:42;10.57;;;7.32;;
68923;SDS011;55961;52.156;20.942;2022-07-23T10:57:11;9.75;;;6.88;;
68923;SDS011;55961;52.156;20.942;2022-07-23T11:02:26;9.23;;;7.40;;
68923;SDS011;55961;52.156;20.942;2022-07-23T11:04:54;11.00;;;7.57;;
68923;SDS011;55961;52.156;20.942;2022-07-23T11:07:25;8.63;;;7.25;;
68923;SDS011;55961;52.156;20.942;2022-07-23T11:09:51;9.52;;;7.25;;
68923;SDS011;55961;52.156;20.942;2022-07-23T11:17:29;14.75;;;8.18;;
68923;SDS011;55961;52.156;20.942;2022-07-23T11:22:39;10.93;;;7.40;;
68923;SDS011;55961;52.156;20.942;2022-07-23T11:25:05;8.33;;;6.93;;
68923;SDS011;55961;52.156;20.942;2022-07-23T11:27:41;11.50;;;7.40;;
68923;SDS011;55961;52.156;20.942;2022-07-23T11:30:13;11.00;;;7.20;;
68923;SDS011;55961;52.156;20.942;2022-07-23T11:32:54;9.18;;;7.32;;
68923;SDS011;55961;52.156;20.942;2022-07-23T11:35:41;11.27;;;7.40;;
68923;SDS011;55961;52.156;20.942;2022-07-23T11:38:18;8.73;;;7.30;;
68923;SDS011;55961;52.156;20.942;2022-07-23T11:40:49;9.07;;;7.30;;
68923;SDS011;55961;52.156;20.942;2022-07-23T11:43:17;10.20;;;7.13;;
68923;SDS011;55961;52.156;20.942;2022-07-23T11:45:45;10.20;;;7.78;;
68923;SDS011;55961;52.156;20.942;2022-07-23T11:48:22;9.02;;;7.68;;
68923;SDS011;55961;52.156;20.942;2022-07-23T11:50:58;11.10;;;7.67;;
68923;SDS011;55961;52.156;20.942;2022-07-23T11:53:33;10.07;;;8.55;;
68923;SDS011;55961;52.156;20.942;2022-07-23T11:56:04;11.43;;;7.53;;
68923;SDS011;55961;52.156;20.942;2022-07-23T11:58:35;8.15;;;7.35;;
68923;SDS011;55961;52.156;20.942;2022-07-23T12:01:01;9.52;;;7.00;;
68923;SDS011;55961;52.156;20.942;2022-07-23T12:03:27;9.77;;;7.20;;
68923;SDS011;55961;52.156;20.942;2022-07-23T12:05:56;9.60;;;7.10;;
68923;SDS011;55961;52.156;20.942;2022-07-23T12:08:24;11.57;;;7.43;;
68923;SDS011;55961;52.156;20.942;2022-07-23T12:10:49;11.65;;;7.57;;
68923;SDS011;55961;52.156;20.942;2022-07-23T12:13:16;11.67;;;7.30;;
68923;SDS011;55961;52.156;20.942;2022-07-23T12:15:44;10.02;;;7.03;;
68923;SDS011;55961;52.156;20.942;2022-07-23T12:18:15;8.75;;;6.90;;
68923;SDS011;55961;52.156;20.942;2022-07-23T12:20:45;11.77;;;6.70;;
68923;SDS011;55961;52.156;20.942;2022-07-23T12:23:14;10.83;;;7.47;;
68923;SDS011;55961;52.156;20.942;2022-07-23T12:25:43;8.57;;;6.88;;
68923;SDS011;55961;52.156;20.942;2022-07-23T12:30:41;11.40;;;8.10;;
68923;SDS011;55961;52.156;20.942;2022-07-23T12:33:18;10.90;;;7.28;;
68923;SDS011;55961;52.156;20.942;2022-07-23T12:35:54;9.07;;;7.03;;
68923;SDS011;55961;52.156;20.942;2022-07-23T12:38:22;9.25;;;7.15;;
68923;SDS011;55961;52.156;20.942;2022-07-23T12:40:50;10.93;;;7.75;;
68923;SDS011;55961;52.156;20.942;2022-07-23T12:46:15;43.13;;;18.75;;
68923;SDS011;55961;52.156;20.942;2022-07-23T12:51:26;9.52;;;6.93;;
68923;SDS011;55961;52.156;20.942;2022-07-23T12:54:03;11.07;;;7.57;;
68923;SDS011;55961;52.156;20.942;2022-07-23T12:56:35;9.73;;;7.32;;
68923;SDS011;55961;52.156;20.942;2022-07-23T13:01:37;9.17;;;7.10;;
68923;SDS011;55961;52.156;20.942;2022-07-23T13:04:12;9.82;;;7.22;;
68923;SDS011;55961;52.156;20.942;2022-07-23T13:06:46;10.38;;;7.60;;
68923;SDS011;55961;52.156;20.942;2022-07-23T13:09:18;9.07;;;7.35;;
68923;SDS011;55961;52.156;20.942;2022-07-23T13:11:48;12.23;;;7.65;;
68923;SDS011;55961;52.156;20.942;2022-07-23T13:14:15;10.93;;;7.40;;
68923;SDS011;55961;52.156;20.942;2022-07-23T13:16:43;10.57;;;7.32;;
68923;SDS011;55961;52.156;20.942;2022-07-23T13:19:10;11.13;;;7.90;;
68923;SDS011;55961;52.156;20.942;2022-07-23T13:21:36;10.80;;;7.53;;
68923;SDS011;55961;52.156;20.942;2022-07-23T13:24:02;9.95;;;7.93;;
68923;SDS011;55961;52.156;20.942;2022-07-23T13:26:28;8.57;;;7.77;;
68923;SDS011;55961;52.156;20.942;2022-07-23T13:28:54;13.23;;;7.47;;
68923;SDS011;55961;52.156;20.942;2022-07-23T13:31:20;9.23;;;7.68;;
68923;SDS011;55961;52.156;20.942;2022-07-23T13:33:46;10.00;;;7.65;;
68923;SDS011;55961;52.156;20.942;2022-07-23T13:36:12;10.90;;;8.33;;
68923;SDS011;55961;52.156;20.942;2022-07-23T13:38:39;10.98;;;7.80;;
68923;SDS011;55961;52.156;20.942;2022-07-23T13:41:05;8.70;;;7.80;;
68923;SDS011;55961;52.156;20.942;2022-07-23T13:43:31;11.67;;;8.53;;
68923;SDS011;55961;52.156;20.942;2022-07-23T13:45:57;14.35;;;8.70;;
68923;SDS011;55961;52.156;20.942;2022-07-23T13:48:24;9.38;;;7.78;;
68923;SDS011;55961;52.156;20.942;2022-07-23T13:50:50;10.02;;;7.93;;
68923;SDS011;55961;52.156;20.942;2022-07-23T13:53:20;9.65;;;7.53;;
68923;SDS011;55961;52.156;20.942;2022-07-23T13:55:48;12.73;;;7.40;;
68923;SDS011;55961;52.156;20.942;2022-07-23T13:58:16;10.93;;;7.70;;
68923;SDS011;55961;52.156;20.942;2022-07-23T14:00:45;10.25;;;7.82;;
68923;SDS011;55961;52.156;20.942;2022-07-23T14:03:13;12.38;;;7.90;;
68923;SDS011;55961;52.156;20.942;2022-07-23T14:05:40;10.27;;;7.55;;
68923;SDS011;55961;52.156;20.942;2022-07-23T14:08:07;10.70;;;7.80;;
68923;SDS011;55961;52.156;20.942;2022-07-23T14:10:33;11.07;;;8.80;;
68923;SDS011;55961;52.156;20.942;2022-07-23T14:12:59;10.73;;;9.63;;
68923;SDS011;55961;52.156;20.942;2022-07-23T14:15:26;13.30;;;10.45;;
68923;SDS011;55961;52.156;20.942;2022-07-23T14:17:53;25.55;;;18.23;;
68923;SDS011;55961;52.156;20.942;2022-07-23T14:20:19;42.37;;;38.13;;
68923;SDS011;55961;52.156;20.942;2022-07-23T14:22:46;14.40;;;11.93;;
68923;SDS011;55961;52.156;20.942;2022-07-23T14:25:12;22.27;;;19.88;;
68923;SDS011;55961;52.156;20.942;2022-07-23T14:27:38;13.13;;;8.95;;
68923;SDS011;55961;52.156;20.942;2022-07-23T14:30:05;11.00;;;7.80;;
68923;SDS011;55961;52.156;20.942;2022-07-23T14:32:31;10.50;;;8.07;;
68923;SDS011;55961;52.156;20.942;2022-07-23T14:34:57;29.85;;;5.45;;
68923;SDS011;55961;52.156;20.942;2022-07-23T14:37:28;37.60;;;5.82;;
68923;SDS011;55961;52.156;20.942;2022-07-23T14:39:54;21.73;;;5.38;;
68923;SDS011;55961;52.156;20.942;2022-07-23T14:42:20;17.03;;;5.43;;
68923;SDS011;55961;52.156;20.942;2022-07-23T14:44:46;15.90;;;5.78;;
68923;SDS011;55961;52.156;20.942;2022-07-23T14:47:12;16.50;;;6.00;;
68923;SDS011;55961;52.156;20.942;2022-07-23T14:49:38;10.27;;;5.70;;
68923;SDS011;55961;52.156;20.942;2022-07-23T14:52:06;14.95;;;5.90;;
68923;SDS011;55961;52.156;20.942;2022-07-23T14:54:32;13.18;;;5.55;;
68923;SDS011;55961;52.156;20.942;2022-07-23T14:56:59;10.90;;;6.07;;
68923;SDS011;55961;52.156;20.942;2022-07-23T14:59:26;13.40;;;6.00;;
68923;SDS011;55961;52.156;20.942;2022-07-23T15:01:52;11.43;;;6.30;;
68923;SDS011;55961;52.156;20.942;2022-07-23T15:04:19;10.10;;;5.70;;